CheckWX is a tool to help pilots better visualize weather data.  It is not intended as a substitute for an official pre-flight weather briefing.

15:27:08 UTC

WSAP METAR
Paya Lebar Air Base Airport
Singapore
Current

27 mins ago

WSAP 131500Z 01006KT 7000 -RA FEW016 BKN150 25/24 Q1012 RERA
Observed
Dec-13 @ 15:00 UTC
Wind
  • 010° at 6 KTS
Visibility
7,000 meters
Flight Rules
MVFR
Conditions
Light Rain
Cloud Levels
  • Few at 1,600' AGL
  • Broken at 15,000' AGL
Temperature
25°C / 77°F
Dewpoint
24°C / 75°F
Humidity
94%
Altimeter
29.88" Hg
Pressure
1011.92 hPa
Previous

52 mins ago

WSAP 131435Z 34002KT 5000 -RA FEW016 BKN150 25/25 Q1012 RERA
Observed
Dec-13 @ 14:35 UTC
Wind
  • 340° at 2 KTS
Visibility
5,000 meters
Flight Rules
MVFR
Conditions
Light Rain
Cloud Levels
  • Few at 1,600' AGL
  • Broken at 15,000' AGL
Temperature
25°C / 77°F
Dewpoint
25°C / 77°F
Humidity
100%
Altimeter
29.88" Hg
Pressure
1011.92 hPa
Previous

1 hour ago

WSAP 131400Z 11004KT 5000 RA FEW016 BKN150 25/24 Q1012
Observed
Dec-13 @ 14:00 UTC
Wind
  • 110° at 4 KTS
Visibility
5,000 meters
Flight Rules
MVFR
Conditions
Rain
Cloud Levels
  • Few at 1,600' AGL
  • Broken at 15,000' AGL
Temperature
25°C / 77°F
Dewpoint
24°C / 75°F
Humidity
94%
Altimeter
29.88" Hg
Pressure
1011.92 hPa